sensor_id;sensor_type;location;lat;lon;timestamp;P1;durP1;ratioP1;P2;durP2;ratioP2
47896;SDS011;39629;51.400;5.494;2022-11-20T00:01:33;11.43;;;5.70;;
47896;SDS011;39629;51.400;5.494;2022-11-20T00:06:35;10.15;;;5.20;;
47896;SDS011;39629;51.400;5.494;2022-11-20T00:11:37;10.48;;;5.30;;
47896;SDS011;39629;51.400;5.494;2022-11-20T00:16:39;11.35;;;5.40;;
47896;SDS011;39629;51.400;5.494;2022-11-20T00:21:41;9.32;;;4.45;;
47896;SDS011;39629;51.400;5.494;2022-11-20T00:26:43;10.43;;;4.85;;
47896;SDS011;39629;51.400;5.494;2022-11-20T00:31:45;10.13;;;5.25;;
47896;SDS011;39629;51.400;5.494;2022-11-20T00:36:46;10.35;;;4.90;;
47896;SDS011;39629;51.400;5.494;2022-11-20T00:41:49;11.05;;;5.05;;
47896;SDS011;39629;51.400;5.494;2022-11-20T00:46:51;11.77;;;5.40;;
47896;SDS011;39629;51.400;5.494;2022-11-20T00:51:52;10.77;;;5.13;;
47896;SDS011;39629;51.400;5.494;2022-11-20T00:56:55;11.15;;;5.28;;
47896;SDS011;39629;51.400;5.494;2022-11-20T01:01:57;11.85;;;5.40;;
47896;SDS011;39629;51.400;5.494;2022-11-20T01:06:58;11.05;;;5.13;;
47896;SDS011;39629;51.400;5.494;2022-11-20T01:12:01;11.07;;;5.50;;
47896;SDS011;39629;51.400;5.494;2022-11-20T01:17:03;11.07;;;5.53;;
47896;SDS011;39629;51.400;5.494;2022-11-20T01:22:05;11.05;;;5.10;;
47896;SDS011;39629;51.400;5.494;2022-11-20T01:27:08;13.00;;;6.22;;
47896;SDS011;39629;51.400;5.494;2022-11-20T01:32:09;12.40;;;5.60;;
47896;SDS011;39629;51.400;5.494;2022-11-20T01:37:11;11.60;;;5.45;;
47896;SDS011;39629;51.400;5.494;2022-11-20T01:42:14;12.15;;;5.95;;
47896;SDS011;39629;51.400;5.494;2022-11-20T01:47:33;11.88;;;5.40;;
47896;SDS011;39629;51.400;5.494;2022-11-20T01:52:39;11.55;;;5.72;;
47896;SDS011;39629;51.400;5.494;2022-11-20T01:57:46;11.25;;;5.65;;
47896;SDS011;39629;51.400;5.494;2022-11-20T02:02:51;13.00;;;5.85;;
47896;SDS011;39629;51.400;5.494;2022-11-20T02:07:57;13.20;;;6.05;;
47896;SDS011;39629;51.400;5.494;2022-11-20T02:13:01;12.68;;;6.30;;
47896;SDS011;39629;51.400;5.494;2022-11-20T02:18:21;14.93;;;6.30;;
47896;SDS011;39629;51.400;5.494;2022-11-20T02:23:24;13.73;;;5.60;;
47896;SDS011;39629;51.400;5.494;2022-11-20T02:28:35;10.57;;;5.28;;
47896;SDS011;39629;51.400;5.494;2022-11-20T02:33:36;11.02;;;5.50;;
47896;SDS011;39629;51.400;5.494;2022-11-20T02:38:38;14.00;;;6.13;;
47896;SDS011;39629;51.400;5.494;2022-11-20T02:43:41;13.88;;;6.20;;
47896;SDS011;39629;51.400;5.494;2022-11-20T02:48:42;13.55;;;6.45;;
47896;SDS011;39629;51.400;5.494;2022-11-20T02:53:44;11.63;;;5.78;;
47896;SDS011;39629;51.400;5.494;2022-11-20T02:58:47;13.90;;;6.70;;
47896;SDS011;39629;51.400;5.494;2022-11-20T03:03:49;10.82;;;5.80;;
47896;SDS011;39629;51.400;5.494;2022-11-20T03:08:50;13.02;;;6.50;;
47896;SDS011;39629;51.400;5.494;2022-11-20T03:13:53;12.90;;;6.07;;
47896;SDS011;39629;51.400;5.494;2022-11-20T03:18:55;12.23;;;6.28;;
47896;SDS011;39629;51.400;5.494;2022-11-20T03:23:57;15.27;;;6.22;;
47896;SDS011;39629;51.400;5.494;2022-11-20T03:29:00;11.80;;;6.05;;
47896;SDS011;39629;51.400;5.494;2022-11-20T03:34:04;12.93;;;6.38;;
47896;SDS011;39629;51.400;5.494;2022-11-20T03:39:05;13.02;;;6.38;;
47896;SDS011;39629;51.400;5.494;2022-11-20T03:44:09;12.70;;;6.13;;
47896;SDS011;39629;51.400;5.494;2022-11-20T03:49:11;12.70;;;6.15;;
47896;SDS011;39629;51.400;5.494;2022-11-20T03:54:13;11.20;;;5.30;;
47896;SDS011;39629;51.400;5.494;2022-11-20T03:59:16;11.65;;;5.70;;
47896;SDS011;39629;51.400;5.494;2022-11-20T04:04:18;12.07;;;5.88;;
47896;SDS011;39629;51.400;5.494;2022-11-20T04:09:19;14.07;;;6.32;;
47896;SDS011;39629;51.400;5.494;2022-11-20T04:14:22;12.90;;;5.40;;
47896;SDS011;39629;51.400;5.494;2022-11-20T04:19:24;9.30;;;5.10;;
47896;SDS011;39629;51.400;5.494;2022-11-20T04:24:26;12.43;;;5.80;;
47896;SDS011;39629;51.400;5.494;2022-11-20T04:29:29;14.65;;;6.07;;
47896;SDS011;39629;51.400;5.494;2022-11-20T04:34:30;11.70;;;5.68;;
47896;SDS011;39629;51.400;5.494;2022-11-20T04:39:32;14.15;;;6.63;;
47896;SDS011;39629;51.400;5.494;2022-11-20T04:44:35;12.38;;;6.07;;
47896;SDS011;39629;51.400;5.494;2022-11-20T04:49:36;15.27;;;6.60;;
47896;SDS011;39629;51.400;5.494;2022-11-20T04:54:38;12.18;;;6.05;;
47896;SDS011;39629;51.400;5.494;2022-11-20T04:59:41;12.60;;;5.95;;
47896;SDS011;39629;51.400;5.494;2022-11-20T05:04:43;13.27;;;6.95;;
47896;SDS011;39629;51.400;5.494;2022-11-20T05:09:45;13.55;;;6.28;;
47896;SDS011;39629;51.400;5.494;2022-11-20T05:14:47;13.77;;;6.82;;
47896;SDS011;39629;51.400;5.494;2022-11-20T05:19:49;11.70;;;5.80;;
47896;SDS011;39629;51.400;5.494;2022-11-20T05:24:50;14.05;;;6.32;;
47896;SDS011;39629;51.400;5.494;2022-11-20T05:29:53;11.52;;;5.60;;
47896;SDS011;39629;51.400;5.494;2022-11-20T05:34:55;13.07;;;6.28;;
47896;SDS011;39629;51.400;5.494;2022-11-20T05:39:57;11.73;;;5.85;;
47896;SDS011;39629;51.400;5.494;2022-11-20T05:45:00;12.75;;;6.68;;
47896;SDS011;39629;51.400;5.494;2022-11-20T05:50:03;11.43;;;5.57;;
47896;SDS011;39629;51.400;5.494;2022-11-20T05:55:05;12.55;;;6.28;;
47896;SDS011;39629;51.400;5.494;2022-11-20T06:00:09;12.00;;;6.30;;
47896;SDS011;39629;51.400;5.494;2022-11-20T06:05:12;11.60;;;5.70;;
47896;SDS011;39629;51.400;5.494;2022-11-20T06:10:13;12.45;;;5.93;;
47896;SDS011;39629;51.400;5.494;2022-11-20T06:15:16;13.93;;;6.20;;
47896;SDS011;39629;51.400;5.494;2022-11-20T06:20:18;13.35;;;6.72;;
47896;SDS011;39629;51.400;5.494;2022-11-20T06:25:19;11.15;;;5.82;;
47896;SDS011;39629;51.400;5.494;2022-11-20T06:30:22;13.48;;;6.25;;
47896;SDS011;39629;51.400;5.494;2022-11-20T06:35:24;10.52;;;5.70;;
47896;SDS011;39629;51.400;5.494;2022-11-20T06:40:26;12.35;;;6.57;;
47896;SDS011;39629;51.400;5.494;2022-11-20T06:45:29;13.55;;;6.38;;
47896;SDS011;39629;51.400;5.494;2022-11-20T06:50:30;11.43;;;6.18;;
47896;SDS011;39629;51.400;5.494;2022-11-20T06:55:32;12.77;;;6.38;;
47896;SDS011;39629;51.400;5.494;2022-11-20T07:00:35;11.65;;;5.90;;
47896;SDS011;39629;51.400;5.494;2022-11-20T07:05:37;15.30;;;6.80;;
47896;SDS011;39629;51.400;5.494;2022-11-20T07:10:39;15.15;;;6.70;;
47896;SDS011;39629;51.400;5.494;2022-11-20T07:15:42;10.98;;;5.60;;
47896;SDS011;39629;51.400;5.494;2022-11-20T07:20:43;12.35;;;6.40;;
47896;SDS011;39629;51.400;5.494;2022-11-20T07:25:45;12.95;;;6.30;;
47896;SDS011;39629;51.400;5.494;2022-11-20T07:30:50;12.73;;;6.10;;
47896;SDS011;39629;51.400;5.494;2022-11-20T07:35:52;12.00;;;5.82;;
47896;SDS011;39629;51.400;5.494;2022-11-20T07:40:54;12.05;;;5.80;;
47896;SDS011;39629;51.400;5.494;2022-11-20T07:45:58;11.10;;;5.88;;
47896;SDS011;39629;51.400;5.494;2022-11-20T07:51:00;12.90;;;5.90;;
47896;SDS011;39629;51.400;5.494;2022-11-20T07:56:02;13.93;;;6.68;;
47896;SDS011;39629;51.400;5.494;2022-11-20T08:01:06;13.02;;;6.50;;
47896;SDS011;39629;51.400;5.494;2022-11-20T08:06:08;10.63;;;5.78;;
47896;SDS011;39629;51.400;5.494;2022-11-20T08:11:10;12.20;;;5.63;;
47896;SDS011;39629;51.400;5.494;2022-11-20T08:16:30;15.52;;;6.70;;
47896;SDS011;39629;51.400;5.494;2022-11-20T08:21:32;12.90;;;6.18;;
47896;SDS011;39629;51.400;5.494;2022-11-20T08:26:34;13.35;;;6.15;;
47896;SDS011;39629;51.400;5.494;2022-11-20T08:31:38;11.57;;;5.80;;
47896;SDS011;39629;51.400;5.494;2022-11-20T08:36:40;13.48;;;6.50;;
47896;SDS011;39629;51.400;5.494;2022-11-20T08:41:41;15.88;;;7.13;;
47896;SDS011;39629;51.400;5.494;2022-11-20T08:46:44;15.25;;;6.57;;
47896;SDS011;39629;51.400;5.494;2022-11-20T08:51:47;13.27;;;6.50;;
47896;SDS011;39629;51.400;5.494;2022-11-20T09:01:54;17.67;;;7.82;;
47896;SDS011;39629;51.400;5.494;2022-11-20T09:06:56;15.23;;;6.97;;
47896;SDS011;39629;51.400;5.494;2022-11-20T09:11:57;15.50;;;6.88;;
47896;SDS011;39629;51.400;5.494;2022-11-20T09:17:00;20.15;;;7.93;;
47896;SDS011;39629;51.400;5.494;2022-11-20T09:22:02;22.00;;;8.20;;
47896;SDS011;39629;51.400;5.494;2022-11-20T09:27:04;26.67;;;10.32;;
47896;SDS011;39629;51.400;5.494;2022-11-20T09:32:07;26.65;;;10.45;;
47896;SDS011;39629;51.400;5.494;2022-11-20T09:37:09;29.27;;;10.90;;
47896;SDS011;39629;51.400;5.494;2022-11-20T09:42:14;30.27;;;12.25;;
47896;SDS011;39629;51.400;5.494;2022-11-20T09:47:33;29.88;;;10.80;;
47896;SDS011;39629;51.400;5.494;2022-11-20T09:52:47;27.38;;;11.02;;
47896;SDS011;39629;51.400;5.494;2022-11-20T09:58:01;30.98;;;11.55;;
47896;SDS011;39629;51.400;5.494;2022-11-20T10:03:11;24.77;;;11.07;;
47896;SDS011;39629;51.400;5.494;2022-11-20T10:08:17;30.17;;;11.77;;
47896;SDS011;39629;51.400;5.494;2022-11-20T10:13:27;26.83;;;10.80;;
47896;SDS011;39629;51.400;5.494;2022-11-20T10:18:42;26.67;;;10.88;;
47896;SDS011;39629;51.400;5.494;2022-11-20T10:23:57;28.17;;;9.25;;
47896;SDS011;39629;51.400;5.494;2022-11-20T10:29:13;24.67;;;11.38;;
47896;SDS011;39629;51.400;5.494;2022-11-20T10:34:20;33.65;;;12.93;;
47896;SDS011;39629;51.400;5.494;2022-11-20T10:39:28;32.03;;;11.80;;
47896;SDS011;39629;51.400;5.494;2022-11-20T10:44:35;27.58;;;11.13;;
47896;SDS011;39629;51.400;5.494;2022-11-20T10:49:57;27.20;;;11.43;;
47896;SDS011;39629;51.400;5.494;2022-11-20T10:55:05;28.55;;;10.82;;
47896;SDS011;39629;51.400;5.494;2022-11-20T11:05:24;26.85;;;10.95;;
47896;SDS011;39629;51.400;5.494;2022-11-20T11:10:36;27.40;;;10.25;;
47896;SDS011;39629;51.400;5.494;2022-11-20T11:15:42;29.83;;;11.80;;
47896;SDS011;39629;51.400;5.494;2022-11-20T11:20:50;25.60;;;10.93;;
47896;SDS011;39629;51.400;5.494;2022-11-20T11:25:56;24.52;;;11.05;;
47896;SDS011;39629;51.400;5.494;2022-11-20T11:30:58;23.75;;;10.20;;
47896;SDS011;39629;51.400;5.494;2022-11-20T11:36:02;26.70;;;10.88;;
47896;SDS011;39629;51.400;5.494;2022-11-20T11:41:06;29.10;;;11.27;;
47896;SDS011;39629;51.400;5.494;2022-11-20T11:51:34;27.35;;;11.10;;
47896;SDS011;39629;51.400;5.494;2022-11-20T11:56:40;25.83;;;10.93;;
47896;SDS011;39629;51.400;5.494;2022-11-20T12:01:42;25.33;;;10.82;;
47896;SDS011;39629;51.400;5.494;2022-11-20T12:06:51;26.75;;;10.65;;
47896;SDS011;39629;51.400;5.494;2022-11-20T12:12:12;29.60;;;10.82;;
47896;SDS011;39629;51.400;5.494;2022-11-20T12:17:18;28.65;;;11.38;;
47896;SDS011;39629;51.400;5.494;2022-11-20T12:22:25;25.27;;;9.98;;
47896;SDS011;39629;51.400;5.494;2022-11-20T12:27:42;22.52;;;9.07;;
47896;SDS011;39629;51.400;5.494;2022-11-20T12:43:46;28.45;;;10.40;;
47896;SDS011;39629;51.400;5.494;2022-11-20T12:49:21;22.55;;;7.50;;
47896;SDS011;39629;51.400;5.494;2022-11-20T12:54:39;28.10;;;10.85;;
47896;SDS011;39629;51.400;5.494;2022-11-20T13:00:08;30.75;;;10.30;;
47896;SDS011;39629;51.400;5.494;2022-11-20T13:05:18;29.88;;;11.52;;
47896;SDS011;39629;51.400;5.494;2022-11-20T13:10:26;28.65;;;10.60;;
47896;SDS011;39629;51.400;5.494;2022-11-20T13:15:37;29.52;;;11.07;;
47896;SDS011;39629;51.400;5.494;2022-11-20T13:20:47;30.88;;;11.57;;
47896;SDS011;39629;51.400;5.494;2022-11-20T13:25:51;29.52;;;11.88;;
47896;SDS011;39629;51.400;5.494;2022-11-20T13:31:03;25.58;;;10.38;;
47896;SDS011;39629;51.400;5.494;2022-11-20T13:36:06;27.27;;;11.73;;
47896;SDS011;39629;51.400;5.494;2022-11-20T13:41:26;29.38;;;11.82;;
47896;SDS011;39629;51.400;5.494;2022-11-20T13:46:36;28.85;;;12.18;;
47896;SDS011;39629;51.400;5.494;2022-11-20T13:51:41;29.77;;;10.98;;
47896;SDS011;39629;51.400;5.494;2022-11-20T13:56:50;28.83;;;11.65;;
47896;SDS011;39629;51.400;5.494;2022-11-20T14:02:00;41.03;;;15.70;;
47896;SDS011;39629;51.400;5.494;2022-11-20T14:07:02;27.52;;;10.43;;
47896;SDS011;39629;51.400;5.494;2022-11-20T14:12:14;30.77;;;11.32;;
47896;SDS011;39629;51.400;5.494;2022-11-20T14:17:19;36.13;;;13.48;;
47896;SDS011;39629;51.400;5.494;2022-11-20T14:22:22;32.85;;;12.40;;
47896;SDS011;39629;51.400;5.494;2022-11-20T14:27:26;32.20;;;13.32;;
47896;SDS011;39629;51.400;5.494;2022-11-20T14:32:29;31.83;;;11.50;;
47896;SDS011;39629;51.400;5.494;2022-11-20T14:37:33;28.30;;;12.27;;
47896;SDS011;39629;51.400;5.494;2022-11-20T14:42:38;34.13;;;12.55;;
47896;SDS011;39629;51.400;5.494;2022-11-20T14:47:44;30.77;;;11.85;;
47896;SDS011;39629;51.400;5.494;2022-11-20T14:52:51;31.00;;;12.50;;
47896;SDS011;39629;51.400;5.494;2022-11-20T14:57:57;26.95;;;10.30;;
47896;SDS011;39629;51.400;5.494;2022-11-20T15:03:00;30.38;;;11.82;;
47896;SDS011;39629;51.400;5.494;2022-11-20T15:08:06;26.92;;;10.10;;
47896;SDS011;39629;51.400;5.494;2022-11-20T15:13:12;25.48;;;9.77;;
47896;SDS011;39629;51.400;5.494;2022-11-20T15:18:16;26.55;;;10.13;;
47896;SDS011;39629;51.400;5.494;2022-11-20T15:23:20;28.02;;;11.13;;
47896;SDS011;39629;51.400;5.494;2022-11-20T15:28:26;30.05;;;11.57;;
47896;SDS011;39629;51.400;5.494;2022-11-20T15:33:31;26.23;;;10.20;;
47896;SDS011;39629;51.400;5.494;2022-11-20T15:38:34;29.42;;;10.98;;
47896;SDS011;39629;51.400;5.494;2022-11-20T15:43:37;22.10;;;9.18;;
47896;SDS011;39629;51.400;5.494;2022-11-20T15:48:39;58.50;;;24.95;;
47896;SDS011;39629;51.400;5.494;2022-11-20T15:53:42;25.88;;;10.75;;
47896;SDS011;39629;51.400;5.494;2022-11-20T15:58:45;18.52;;;7.32;;
47896;SDS011;39629;51.400;5.494;2022-11-20T16:03:47;16.60;;;6.80;;
47896;SDS011;39629;51.400;5.494;2022-11-20T16:08:49;13.38;;;5.65;;
47896;SDS011;39629;51.400;5.494;2022-11-20T16:13:52;15.68;;;5.72;;
47896;SDS011;39629;51.400;5.494;2022-11-20T16:19:11;11.60;;;4.65;;
47896;SDS011;39629;51.400;5.494;2022-11-20T16:24:13;19.15;;;8.40;;
47896;SDS011;39629;51.400;5.494;2022-11-20T16:29:18;9.25;;;4.20;;
47896;SDS011;39629;51.400;5.494;2022-11-20T16:34:19;8.43;;;4.03;;
47896;SDS011;39629;51.400;5.494;2022-11-20T16:39:21;8.65;;;3.80;;
47896;SDS011;39629;51.400;5.494;2022-11-20T16:44:24;4.38;;;2.72;;
47896;SDS011;39629;51.400;5.494;2022-11-20T16:49:26;4.78;;;2.50;;
47896;SDS011;39629;51.400;5.494;2022-11-20T16:54:27;4.40;;;2.70;;
47896;SDS011;39629;51.400;5.494;2022-11-20T16:59:30;6.85;;;2.92;;
47896;SDS011;39629;51.400;5.494;2022-11-20T17:04:31;4.95;;;2.90;;
47896;SDS011;39629;51.400;5.494;2022-11-20T17:09:33;4.50;;;2.75;;
47896;SDS011;39629;51.400;5.494;2022-11-20T17:14:36;5.55;;;3.13;;
47896;SDS011;39629;51.400;5.494;2022-11-20T17:19:38;6.40;;;3.60;;
47896;SDS011;39629;51.400;5.494;2022-11-20T17:24:39;5.38;;;3.53;;
47896;SDS011;39629;51.400;5.494;2022-11-20T17:29:43;7.00;;;3.92;;
47896;SDS011;39629;51.400;5.494;2022-11-20T17:34:45;7.33;;;4.17;;
47896;SDS011;39629;51.400;5.494;2022-11-20T17:39:46;7.18;;;4.30;;
47896;SDS011;39629;51.400;5.494;2022-11-20T17:44:49;9.10;;;4.43;;
47896;SDS011;39629;51.400;5.494;2022-11-20T17:49:51;8.88;;;3.90;;
47896;SDS011;39629;51.400;5.494;2022-11-20T17:54:54;7.70;;;3.97;;
47896;SDS011;39629;51.400;5.494;2022-11-20T17:59:58;8.77;;;3.80;;
47896;SDS011;39629;51.400;5.494;2022-11-20T18:05:00;13.43;;;4.28;;
47896;SDS011;39629;51.400;5.494;2022-11-20T18:10:01;10.88;;;3.70;;
47896;SDS011;39629;51.400;5.494;2022-11-20T18:15:04;8.43;;;4.07;;
47896;SDS011;39629;51.400;5.494;2022-11-20T18:20:07;10.70;;;4.30;;
47896;SDS011;39629;51.400;5.494;2022-11-20T18:25:09;9.45;;;4.00;;
47896;SDS011;39629;51.400;5.494;2022-11-20T18:30:13;13.57;;;4.45;;
47896;SDS011;39629;51.400;5.494;2022-11-20T18:35:15;9.65;;;3.92;;
47896;SDS011;39629;51.400;5.494;2022-11-20T18:40:17;9.15;;;3.75;;
47896;SDS011;39629;51.400;5.494;2022-11-20T18:45:20;10.48;;;4.13;;
47896;SDS011;39629;51.400;5.494;2022-11-20T18:50:21;12.05;;;4.15;;
47896;SDS011;39629;51.400;5.494;2022-11-20T18:55:23;7.93;;;3.70;;
47896;SDS011;39629;51.400;5.494;2022-11-20T19:00:26;11.48;;;3.67;;
47896;SDS011;39629;51.400;5.494;2022-11-20T19:05:28;10.93;;;4.63;;
47896;SDS011;39629;51.400;5.494;2022-11-20T19:10:29;10.43;;;3.50;;
47896;SDS011;39629;51.400;5.494;2022-11-20T19:15:32;11.05;;;4.32;;
47896;SDS011;39629;51.400;5.494;2022-11-20T19:20:36;12.85;;;4.55;;
47896;SDS011;39629;51.400;5.494;2022-11-20T19:25:37;14.80;;;4.63;;
47896;SDS011;39629;51.400;5.494;2022-11-20T19:30:40;14.52;;;4.93;;
47896;SDS011;39629;51.400;5.494;2022-11-20T19:35:42;14.43;;;4.50;;
47896;SDS011;39629;51.400;5.494;2022-11-20T19:40:43;11.45;;;4.20;;
47896;SDS011;39629;51.400;5.494;2022-11-20T19:45:46;12.73;;;4.50;;
47896;SDS011;39629;51.400;5.494;2022-11-20T19:50:48;9.05;;;4.03;;
47896;SDS011;39629;51.400;5.494;2022-11-20T19:55:53;16.20;;;4.15;;
47896;SDS011;39629;51.400;5.494;2022-11-20T20:00:57;11.93;;;3.90;;
47896;SDS011;39629;51.400;5.494;2022-11-20T20:06:06;16.17;;;4.50;;
47896;SDS011;39629;51.400;5.494;2022-11-20T20:11:10;12.77;;;3.90;;
47896;SDS011;39629;51.400;5.494;2022-11-20T20:16:15;11.95;;;2.97;;
47896;SDS011;39629;51.400;5.494;2022-11-20T20:21:18;18.17;;;3.90;;
47896;SDS011;39629;51.400;5.494;2022-11-20T20:26:20;10.57;;;2.97;;
47896;SDS011;39629;51.400;5.494;2022-11-20T20:31:24;12.38;;;2.75;;
47896;SDS011;39629;51.400;5.494;2022-11-20T20:36:27;16.13;;;2.60;;
47896;SDS011;39629;51.400;5.494;2022-11-20T20:41:29;9.27;;;2.55;;
47896;SDS011;39629;51.400;5.494;2022-11-20T20:46:32;20.98;;;2.85;;
47896;SDS011;39629;51.400;5.494;2022-11-20T20:51:34;13.90;;;3.05;;
47896;SDS011;39629;51.400;5.494;2022-11-20T20:56:36;12.98;;;2.58;;
47896;SDS011;39629;51.400;5.494;2022-11-20T21:01:39;14.13;;;2.80;;
47896;SDS011;39629;51.400;5.494;2022-11-20T21:06:40;9.35;;;2.10;;
47896;SDS011;39629;51.400;5.494;2022-11-20T21:11:42;8.27;;;2.33;;
47896;SDS011;39629;51.400;5.494;2022-11-20T21:16:45;10.02;;;2.17;;
47896;SDS011;39629;51.400;5.494;2022-11-20T21:21:47;14.52;;;2.35;;
47896;SDS011;39629;51.400;5.494;2022-11-20T21:27:02;6.78;;;1.95;;
47896;SDS011;39629;51.400;5.494;2022-11-20T21:32:07;7.85;;;1.73;;
47896;SDS011;39629;51.400;5.494;2022-11-20T21:37:08;11.68;;;2.38;;
47896;SDS011;39629;51.400;5.494;2022-11-20T21:42:10;10.38;;;2.20;;
47896;SDS011;39629;51.400;5.494;2022-11-20T21:47:15;6.80;;;2.30;;
47896;SDS011;39629;51.400;5.494;2022-11-20T21:52:16;8.23;;;2.33;;
47896;SDS011;39629;51.400;5.494;2022-11-20T21:57:18;8.05;;;2.80;;
47896;SDS011;39629;51.400;5.494;2022-11-20T22:02:21;11.63;;;3.10;;
47896;SDS011;39629;51.400;5.494;2022-11-20T22:07:22;10.63;;;3.42;;
47896;SDS011;39629;51.400;5.494;2022-11-20T22:12:24;16.05;;;3.50;;
47896;SDS011;39629;51.400;5.494;2022-11-20T22:17:27;14.70;;;3.40;;
47896;SDS011;39629;51.400;5.494;2022-11-20T22:22:42;13.13;;;3.05;;
47896;SDS011;39629;51.400;5.494;2022-11-20T22:27:44;14.65;;;3.05;;
47896;SDS011;39629;51.400;5.494;2022-11-20T22:32:48;15.02;;;2.95;;
47896;SDS011;39629;51.400;5.494;2022-11-20T22:37:50;11.70;;;3.00;;
47896;SDS011;39629;51.400;5.494;2022-11-20T22:42:51;11.85;;;2.90;;
47896;SDS011;39629;51.400;5.494;2022-11-20T22:47:54;13.02;;;3.10;;
47896;SDS011;39629;51.400;5.494;2022-11-20T22:52:56;16.50;;;3.25;;
47896;SDS011;39629;51.400;5.494;2022-11-20T22:57:57;11.77;;;2.60;;
47896;SDS011;39629;51.400;5.494;2022-11-20T23:03:00;10.93;;;2.70;;
47896;SDS011;39629;51.400;5.494;2022-11-20T23:08:02;10.32;;;2.92;;
47896;SDS011;39629;51.400;5.494;2022-11-20T23:13:04;9.13;;;2.45;;
47896;SDS011;39629;51.400;5.494;2022-11-20T23:18:07;8.45;;;2.25;;
47896;SDS011;39629;51.400;5.494;2022-11-20T23:23:09;8.55;;;2.53;;
47896;SDS011;39629;51.400;5.494;2022-11-20T23:28:10;10.38;;;2.67;;
47896;SDS011;39629;51.400;5.494;2022-11-20T23:33:13;9.57;;;2.67;;
47896;SDS011;39629;51.400;5.494;2022-11-20T23:38:15;11.02;;;2.45;;
47896;SDS011;39629;51.400;5.494;2022-11-20T23:43:17;12.38;;;2.85;;
47896;SDS011;39629;51.400;5.494;2022-11-20T23:48:22;6.10;;;2.27;;
47896;SDS011;39629;51.400;5.494;2022-11-20T23:53:26;11.90;;;2.53;;
47896;SDS011;39629;51.400;5.494;2022-11-20T23:58:29;15.50;;;2.22;;
